Lucerne, CA

6:07 AM PDT on September 02, 2014 (GMT -0700)
Sonoma County | Change Station
CLOSE
Current Station
Airport
Location: Santa Rosa,
Elevation: 125 ft
Nearby Weather Stations

Elev 125 ft 38.50 °N, 122.81 °W | Updated 4 minutes ago

Fog
Fog
54 °F
Feels Like 54 °F
N
0
Wind Variable Wind from North

Today
High -- | Low -- °F
--% Chance of Precip.
Yesterday
High -- | Low -- °F
Precip. -- in
6:40 AM 7:39 PM
Waxing Crescent, 51% visible
Pressure 29.79 in
Visibility 0.5 miles
Clouds
Dew Point 54 °F
Humidity 100%
Rainfall 0.00 in
Snow Depth Not available.
UV Not available.
Pollen 8.60 out of 12
Air Quality Not available.
Flu Activity Not available.
SPECI KSTS 021303Z AUTO 00000KT 1/2SM FG VV002 12/12 A2979 RMK AO2

More Conditions Fewer Conditions

Pressure 29.79 in
Visibility 0.5 miles
Clouds
Dew Point 54 °F
Humidity 100%
Rainfall 0.00 in
Snow Depth Not available.
UV Not available.
Pollen 8.60 out of 12
Air Quality Not available.
Flu Activity Not available.
SPECI KSTS 021303Z AUTO 00000KT 1/2SM FG VV002 12/12 A2979 RMK AO2

More Conditions Fewer Conditions

10-Day Weather Forecast

Almanac

Astronomy

Sep. 02, 2014 Rise Set
Actual Time 6:40 AM PDT 7:39 PM PDT
Civil Twilight 6:13 AM PDT 8:07 PM PDT
Nautical Twilight 5:41 AM PDT 8:39 PM PDT
Astronomical Twilight 5:07 AM PDT 9:13 PM PDT
Moon 2:27 PM PDT No Moon Set
Length of Visible Light 13h 53m
Length of Day
12h 59m
Tomorrow will be 2m 27s shorter.
Waxing Crescent, 51% of the Moon is Illuminated
Today
Waxing Crescent
Sep 8
Full
Sep 15
Last Quarter
Sep 24
New
Oct 1
First Quarter

Today's Extremes

State Highs State Lows

Community

WunderPhotos

Upload Photos

1,749,648 photos uploaded!

Nearby

Snow Depth

Station Depth Elevation
CSS Lab 2 in 6900 ft
Tahoe City Cross 0 in 6750 ft
Rubicon #2 0 in 7500 ft
Echo Peak 0 in 7800 ft
Fallen Leaf 0 in 6300 ft

Earthquake Activity

City Distance Mag. Time & Date
Yountville, California 53 miles 2.6 1:15 PM PDT
2014-09-01
Green Valley, California 66 miles 2.5 6:37 AM PDT
2014-08-31
Napa, California 63 miles 3.2 1:56 AM PDT
2014-08-31
Minimum magnitude displayed is 2.5.

Coastal Water Temperatures

Place Temperature
No Stations Reporting

Nearby Weather Stations